Terminal Aerodrome Forecast
Issued by NWS

Home | Current Version | Previous Version | Text Only | Print | Product List | Glossary On
Versions: 1 2 3 4 5 6 7 8 9 10 11 12 13 14 15 16 17 18 19 20 21
612
FTUS41 KBGM 101137
TAFELM
TAF
KELM 101137Z 1012/1112 25003KT P6SM OVC050
      TEMPO 1015/1019 27011KT 1 1/2SM -SN OVC020
     FM101900 28008KT P6SM -SHSN OVC040
     FM110000 27010KT 5SM -SHSN OVC025=

USA.gov is the U.S. government's official web portal to all federal, state and local government web resources and services.